Time;durP1;ratioP1;P1;durP2;ratioP2;P2;SDS_P1;SDS_P2;PMS_P1;PMS_P2;Temp;Humidity;BMP_temperature;BMP_pressure;BME280_temperature;BME280_humidity;BME280_pressure;Samples;Min_cycle;Max_cycle;Signal;HPM_P1;HPM_P2
2022/01/24 00:02:06;;;;;;;35.85;15.00;;;1.40;99.90;;;;;;5112571;28;20051;-60
2022/01/24 00:04:33;;;;;;;41.58;16.23;;;1.40;99.90;;;;;;5112270;28;20044;-60
2022/01/24 00:07:00;;;;;;;44.90;17.85;;;1.40;99.90;;;;;;5111853;28;20039;-60
2022/01/24 00:09:27;;;;;;;47.28;18.33;;;1.40;99.90;;;;;;5112297;28;20070;-60
2022/01/24 00:17:11;;;;;;;46.63;18.05;;;1.40;99.90;;;;;;5111178;28;20046;-60
2022/01/24 00:27:57;;;;;;;40.67;18.05;;;1.40;99.90;;;;;;5112070;28;20073;-60
2022/01/24 00:30:25;;;;;;;47.75;18.33;;;1.50;99.90;;;;;;5111870;28;20518;-60
2022/01/24 00:32:52;;;;;;;;;;;1.50;99.90;;;;;;5112496;28;20075;-60
2022/01/24 00:35:18;;;;;;;62.13;20.42;;;1.50;99.90;;;;;;5111522;28;20367;-60
2022/01/24 00:37:45;;;;;;;61.90;22.05;;;1.50;99.90;;;;;;5112073;28;20043;-60
2022/01/24 00:40:13;;;;;;;56.53;21.50;;;1.60;99.90;;;;;;5112026;28;20079;-60
2022/01/24 00:42:59;;;;;;;63.60;22.63;;;1.60;99.90;;;;;;5111764;28;20044;-60
2022/01/24 00:55:56;;;;;;;60.72;22.38;;;1.60;99.90;;;;;;5111189;28;20039;-60
2022/01/24 00:58:23;;;;;;;69.63;23.80;;;1.60;99.90;;;;;;5111662;28;20100;-60
2022/01/24 01:00:51;;;;;;;62.92;22.40;;;1.50;99.90;;;;;;5111889;28;20561;-60
2022/01/24 01:03:19;;;;;;;61.72;24.05;;;1.50;99.90;;;;;;5111738;28;20049;-60
2022/01/24 01:19:03;;;;;;;66.55;24.10;;;1.50;99.90;;;;;;5111556;28;20044;-60
2022/01/24 01:21:29;;;;;;;67.68;25.13;;;1.40;99.90;;;;;;5111696;28;20092;-60
2022/01/24 01:23:58;;;;;;;75.50;25.35;;;1.50;99.90;;;;;;5111713;28;20050;-60
2022/01/24 01:26:32;;;;;;;84.97;26.38;;;1.40;99.90;;;;;;5111232;28;20043;-60
2022/01/24 01:29:07;;;;;;;59.03;21.05;;;1.40;99.90;;;;;;5111573;28;20083;-60
2022/01/24 01:31:57;;;;;;;72.90;24.77;;;1.50;99.90;;;;;;5115109;28;20089;-60
2022/01/24 01:37:45;;;;;;;53.85;19.65;;;1.50;99.90;;;;;;5114852;28;20044;-60
2022/01/24 01:56:23;;;;;;;46.25;20.15;;;1.50;99.90;;;;;;5114387;28;20090;-60
2022/01/24 01:58:50;;;;;;;45.38;17.45;;;1.50;99.90;;;;;;5115037;28;20456;-60
2022/01/24 02:01:18;;;;;;;52.03;19.65;;;1.50;99.90;;;;;;5114895;28;20054;-60
2022/01/24 02:03:46;;;;;;;50.65;20.50;;;1.40;99.90;;;;;;5114819;28;20048;-60
2022/01/24 02:06:13;;;;;;;46.67;18.50;;;1.50;99.90;;;;;;5114182;28;20051;-60
2022/01/24 02:08:41;;;;;;;45.65;19.25;;;1.50;99.90;;;;;;5114948;28;20510;-60
2022/01/24 02:11:10;;;;;;;45.67;17.60;;;1.40;99.90;;;;;;5114375;28;20041;-60
2022/01/24 02:13:37;;;;;;;48.58;18.45;;;1.40;99.90;;;;;;5114554;28;20039;-60
2022/01/24 02:16:17;;;;;;;43.45;19.08;;;1.30;99.90;;;;;;5114142;28;20044;-60
2022/01/24 02:19:08;;;;;;;43.75;18.38;;;1.30;99.90;;;;;;5114506;28;20043;-60
2022/01/24 02:24:09;;;;;;;49.00;19.13;;;1.20;99.90;;;;;;5114546;28;20051;-60
2022/01/24 02:26:36;;;;;;;45.60;18.20;;;1.10;99.90;;;;;;5113943;28;20080;-60
2022/01/24 02:34:17;;;;;;;44.85;18.42;;;1.00;99.90;;;;;;5113952;28;20045;-60
2022/01/24 02:36:44;;;;;;;48.55;18.38;;;0.90;99.90;;;;;;5113991;28;20426;-60
2022/01/24 02:49:54;;;;;;;40.75;17.65;;;0.70;99.90;;;;;;5113969;28;20052;-60
2022/01/24 02:52:25;;;;;;;34.30;13.05;;;0.60;99.90;;;;;;5113800;28;20484;-60
2022/01/24 02:54:52;;;;;;;45.20;18.95;;;0.60;99.90;;;;;;5113675;28;20040;-60
2022/01/24 02:57:20;;;;;;;46.20;18.63;;;0.60;99.90;;;;;;5113323;28;20438;-59
2022/01/24 02:59:47;;;;;;;47.25;17.95;;;0.60;99.90;;;;;;5113694;28;20608;-60
2022/01/24 03:02:14;;;;;;;42.95;18.20;;;0.50;99.90;;;;;;5113549;28;20039;-60
2022/01/24 03:04:41;;;;;;;43.25;18.20;;;0.50;99.90;;;;;;5113614;28;20046;-60
2022/01/24 03:07:08;;;;;;;40.80;16.75;;;0.40;99.90;;;;;;5113128;28;20055;-60
2022/01/24 03:09:36;;;;;;;37.00;15.82;;;0.30;99.90;;;;;;5113469;28;20488;-60
2022/01/24 03:12:12;;;;;;;44.38;17.88;;;0.30;99.90;;;;;;5113296;28;20572;-60
2022/01/24 03:14:39;;;;;;;42.25;17.35;;;0.30;99.90;;;;;;5113460;28;20043;-60
2022/01/24 03:17:07;;;;;;;42.22;16.92;;;0.30;99.90;;;;;;5112803;28;20089;-60
2022/01/24 03:19:34;;;;;;;47.85;18.67;;;0.30;99.90;;;;;;5113399;28;20043;-60
2022/01/24 03:22:02;;;;;;;42.55;16.30;;;0.30;99.90;;;;;;5113057;28;20047;-60
2022/01/24 03:24:29;;;;;;;40.42;16.20;;;0.30;99.90;;;;;;5113198;28;20039;-60
2022/01/24 03:26:55;;;;;;;37.90;15.65;;;0.30;99.90;;;;;;5112578;28;20092;-59
2022/01/24 03:29:22;;;;;;;40.00;16.30;;;0.30;99.90;;;;;;5113168;28;20052;-60
2022/01/24 03:31:49;;;;;;;36.47;15.90;;;0.30;99.90;;;;;;5113232;28;20071;-60
2022/01/24 03:34:16;;;;;;;35.83;15.40;;;0.30;99.90;;;;;;5113082;28;20043;-60
2022/01/24 03:36:43;;;;;;;40.03;17.17;;;0.20;99.90;;;;;;5112404;28;20085;-60
2022/01/24 03:39:11;;;;;;;39.17;16.13;;;0.20;99.90;;;;;;5112858;28;20043;-60
2022/01/24 03:41:40;;;;;;;35.88;15.38;;;0.20;99.90;;;;;;5112918;28;20042;-60
2022/01/24 03:44:11;;;;;;;44.38;16.83;;;0.20;99.90;;;;;;5112816;28;20051;-60
2022/01/24 03:47:00;;;;;;;42.53;16.58;;;0.20;99.90;;;;;;5112240;28;20138;-60
2022/01/24 03:49:45;;;;;;;;;;;0.20;99.90;;;;;;5113163;28;20048;-60
2022/01/24 03:52:13;;;;;;;37.20;15.90;;;0.20;99.90;;;;;;5112160;28;19919;-60
2022/01/24 03:54:43;;;;;;;37.88;15.40;;;0.20;99.90;;;;;;5112592;28;20549;-60
2022/01/24 03:57:12;;;;;;;34.60;15.30;;;0.20;99.90;;;;;;5112068;28;20431;-60
2022/01/24 03:59:39;;;;;;;37.15;16.30;;;0.30;99.90;;;;;;5112377;28;20043;-60
2022/01/24 04:02:07;;;;;;;38.10;16.15;;;0.30;99.90;;;;;;5112733;28;20093;-60
2022/01/24 04:04:34;;;;;;;36.13;15.75;;;0.30;99.90;;;;;;5112550;28;20491;-60
2022/01/24 04:07:01;;;;;;;;;;;0.30;99.90;;;;;;5116310;22;20032;-60
2022/01/24 04:09:28;;;;;;;33.75;14.13;;;0.20;99.90;;;;;;5091765;28;19919;-60
2022/01/24 04:11:57;;;;;;;33.60;14.82;;;0.20;99.90;;;;;;5091660;28;20468;-60
2022/01/24 04:14:31;;;;;;;36.75;14.80;;;0.20;99.90;;;;;;5091949;28;20039;-60
2022/01/24 04:22:09;;;;;;;28.38;13.43;;;0.20;99.90;;;;;;5071540;28;20094;-60
2022/01/24 04:24:37;;;;;;;34.58;14.55;;;0.20;99.90;;;;;;5071422;28;20098;-60
2022/01/24 04:27:04;;;;;;;;;;;0.20;99.90;;;;;;5071625;28;20044;-60
2022/01/24 04:29:32;;;;;;;30.73;14.50;;;0.10;99.90;;;;;;5071639;28;19973;-60
2022/01/24 04:31:59;;;;;;;35.15;14.30;;;0.10;99.90;;;;;;5070751;28;20044;-60
2022/01/24 04:34:26;;;;;;;;;;;0.00;99.90;;;;;;5071545;28;20079;-60
2022/01/24 04:36:53;;;;;;;33.75;14.35;;;0.00;99.90;;;;;;5071020;28;19921;-60
2022/01/24 04:39:20;;;;;;;34.13;14.18;;;0.00;99.90;;;;;;5071254;28;20052;-60
2022/01/24 04:41:51;;;;;;;37.42;14.80;;;0.00;99.90;;;;;;5071341;28;20037;-60
2022/01/24 04:47:18;;;;;;;38.58;15.77;;;-0.10;99.90;;;;;;5070615;28;20048;-60
2022/01/24 04:52:47;;;;;;;40.33;15.57;;;-0.10;99.90;;;;;;5068841;28;20064;-60
2022/01/24 04:55:15;;;;;;;35.70;14.60;;;0.00;99.90;;;;;;5070936;28;20067;-60
2022/01/24 04:57:41;;;;;;;39.47;16.60;;;0.00;99.90;;;;;;5071348;28;20546;-60
2022/01/24 05:00:10;;;;;;;36.05;15.90;;;0.00;99.90;;;;;;5071150;28;20574;-60
2022/01/24 05:02:37;;;;;;;35.72;15.65;;;0.00;99.90;;;;;;5053860;28;20052;-60
2022/01/24 05:05:05;;;;;;;;;;;0.00;99.90;;;;;;5053134;28;20037;-60
2022/01/24 05:07:32;;;;;;;34.95;15.55;;;0.00;99.90;;;;;;5054884;28;19963;-60
2022/01/24 05:21:23;;;;;;;38.13;16.40;;;0.00;99.90;;;;;;5069275;28;20098;-60
2022/01/24 05:21:32;;;;;;;39.13;16.48;;;0.10;99.90;;;;;;5073603;28;20047;-60
2022/01/24 05:23:58;;;;;;;35.38;15.52;;;0.10;99.90;;;;;;5054901;28;20132;-60
2022/01/24 05:26:25;;;;;;;34.45;14.88;;;0.10;99.90;;;;;;5054261;28;20094;-60
2022/01/24 05:28:52;;;;;;;32.17;14.27;;;0.10;99.90;;;;;;5054889;28;20041;-60
2022/01/24 05:31:21;;;;;;;32.65;13.95;;;0.10;99.90;;;;;;5056891;28;20037;-60
2022/01/24 05:33:49;;;;;;;37.47;16.33;;;0.10;99.90;;;;;;5054738;28;20494;-60
2022/01/24 05:36:16;;;;;;;35.38;14.82;;;0.20;99.90;;;;;;5054136;28;20099;-60
2022/01/24 05:38:43;;;;;;;38.88;16.63;;;0.20;99.90;;;;;;5054582;28;20037;-60
2022/01/24 05:41:10;;;;;;;39.80;15.98;;;0.20;99.90;;;;;;5054205;28;20033;-60
2022/01/24 05:43:36;;;;;;;37.28;15.02;;;0.20;99.90;;;;;;5064886;28;20036;-60
2022/01/24 05:46:03;;;;;;;43.13;16.52;;;0.20;99.90;;;;;;5063419;28;20683;-60
2022/01/24 05:48:30;;;;;;;34.80;16.20;;;0.20;99.90;;;;;;5063268;28;20111;-60
2022/01/24 05:50:57;;;;;;;32.10;14.27;;;0.30;99.90;;;;;;5067636;28;20032;-60
2022/01/24 05:53:24;;;;;;;37.88;15.35;;;0.30;99.90;;;;;;5073610;28;20069;-60
2022/01/24 05:55:51;;;;;;;37.97;15.13;;;0.40;99.90;;;;;;5073458;28;20040;-60
2022/01/24 05:58:17;;;;;;;33.38;13.65;;;0.40;99.90;;;;;;5073638;28;20463;-60
2022/01/24 06:00:44;;;;;;;34.15;14.20;;;0.40;99.90;;;;;;5073812;28;20393;-60
2022/01/24 06:03:11;;;;;;;37.05;14.55;;;0.40;99.90;;;;;;5073743;28;20041;-60
2022/01/24 06:05:38;;;;;;;41.35;16.45;;;0.40;99.90;;;;;;5062156;28;20065;-60
2022/01/24 06:08:05;;;;;;;48.70;18.25;;;0.40;99.90;;;;;;5063719;28;20086;-60
2022/01/24 06:10:32;;;;;;;43.88;18.38;;;0.40;99.90;;;;;;5063941;28;20080;-60
2022/01/24 06:12:59;;;;;;;30.33;12.02;;;0.50;99.90;;;;;;5062103;28;20037;-60
2022/01/24 06:15:26;;;;;;;26.10;11.60;;;0.50;99.90;;;;;;5060043;28;20037;-60
2022/01/24 06:17:53;;;;;;;32.03;15.20;;;0.40;99.90;;;;;;5053731;28;20044;-60
2022/01/24 06:20:20;;;;;;;33.20;14.88;;;0.50;99.90;;;;;;5053667;28;20083;-60
2022/01/24 06:22:47;;;;;;;34.15;15.23;;;0.40;99.90;;;;;;5053811;28;20048;-60
2022/01/24 06:25:20;;;;;;;37.20;16.00;;;0.40;99.90;;;;;;5053538;28;20408;-60
2022/01/24 06:27:47;;;;;;;35.33;15.35;;;0.40;99.90;;;;;;5053846;28;20099;-60
2022/01/24 06:30:14;;;;;;;34.97;15.73;;;0.40;99.90;;;;;;5055078;28;20559;-60
2022/01/24 06:32:41;;;;;;;36.60;15.70;;;0.40;99.90;;;;;;5067659;28;20037;-60
2022/01/24 06:35:10;;;;;;;41.72;18.70;;;0.40;99.90;;;;;;5073468;28;20131;-60
2022/01/24 06:37:37;;;;;;;41.17;17.98;;;0.40;99.90;;;;;;5073154;28;20049;-60
2022/01/24 06:40:06;;;;;;;41.33;17.48;;;0.40;99.90;;;;;;5073434;28;20041;-60
2022/01/24 06:42:33;;;;;;;37.38;16.48;;;0.40;99.90;;;;;;5073418;28;20044;-60
2022/01/24 06:45:00;;;;;;;47.15;21.33;;;0.40;99.90;;;;;;5072590;28;20045;-60
2022/01/24 06:47:27;;;;;;;43.50;20.38;;;0.40;99.90;;;;;;5072095;28;20045;-60
2022/01/24 06:49:53;;;;;;;46.28;22.33;;;0.40;99.90;;;;;;5073231;28;20052;-60
2022/01/24 06:52:20;;;;;;;48.42;21.13;;;0.40;99.90;;;;;;5073106;28;20067;-60
2022/01/24 06:54:48;;;;;;;41.92;18.73;;;0.40;99.90;;;;;;5073049;28;20049;-60
2022/01/24 06:57:15;;;;;;;;;;;0.40;99.90;;;;;;5072944;28;20444;-60
2022/01/24 06:59:43;;;;;;;37.50;16.95;;;0.40;99.90;;;;;;5073097;28;19920;-60
2022/01/24 07:02:11;;;;;;;41.25;16.73;;;0.40;99.90;;;;;;5054663;28;20064;-60
2022/01/24 07:04:41;;;;;;;44.30;17.27;;;0.40;99.90;;;;;;5053258;28;20045;-60
2022/01/24 07:07:10;;;;;;;39.70;17.75;;;0.40;99.90;;;;;;5052128;28;20086;-60
2022/01/24 07:09:37;;;;;;;41.60;18.30;;;0.30;99.90;;;;;;5052729;28;20103;-60
2022/01/24 07:12:04;;;;;;;40.67;18.40;;;0.30;99.90;;;;;;5052840;28;20072;-60
2022/01/24 07:14:31;;;;;;;41.92;17.23;;;0.40;99.90;;;;;;5052685;28;20094;-60
2022/01/24 07:19:29;;;;;;;38.85;16.35;;;0.40;99.90;;;;;;5052560;28;20041;-60
2022/01/24 07:21:57;;;;;;;33.78;14.88;;;0.40;99.90;;;;;;5052599;28;20485;-60
2022/01/24 07:24:25;;;;;;;39.30;16.48;;;0.30;99.90;;;;;;5052323;28;20045;-60
2022/01/24 07:26:52;;;;;;;44.35;17.15;;;0.30;99.90;;;;;;5051350;28;20083;-60
2022/01/24 07:29:19;;;;;;;42.35;16.20;;;0.30;99.90;;;;;;5052491;28;20053;-60
2022/01/24 07:31:46;;;;;;;35.63;15.25;;;0.20;99.90;;;;;;5052865;28;20075;-60
2022/01/24 07:34:14;;;;;;;;;;;0.20;99.90;;;;;;5052532;28;20048;-60
2022/01/24 07:36:41;;;;;;;38.30;13.90;;;0.10;99.90;;;;;;5051880;28;19979;-59
2022/01/24 07:39:11;;;;;;;34.08;15.45;;;0.10;99.90;;;;;;5052224;28;20041;-60
2022/01/24 07:41:44;;;;;;;32.08;14.18;;;0.10;99.90;;;;;;5052277;28;20060;-60
2022/01/24 07:44:16;;;;;;;27.10;12.27;;;0.10;99.90;;;;;;5034413;28;20450;-60
2022/01/24 07:46:44;;;;;;;38.17;15.50;;;0.10;99.90;;;;;;5051305;28;20536;-60
2022/01/24 07:49:12;;;;;;;32.63;14.02;;;0.20;99.90;;;;;;5052337;28;20041;-60
2022/01/24 07:51:40;;;;;;;31.90;14.48;;;0.20;99.90;;;;;;5051840;28;20040;-60
2022/01/24 07:54:08;;;;;;;35.08;15.35;;;0.30;99.90;;;;;;5052387;28;20425;-60
2022/01/24 07:56:36;;;;;;;38.25;15.68;;;0.30;99.90;;;;;;5051287;28;20041;-60
2022/01/24 07:59:03;;;;;;;34.53;15.80;;;0.30;99.90;;;;;;5052126;28;20091;-60
2022/01/24 08:01:30;;;;;;;36.05;14.93;;;0.40;99.90;;;;;;5051963;28;20547;-60
2022/01/24 08:03:57;;;;;;;33.47;15.75;;;0.40;99.90;;;;;;5051638;28;20044;-60
2022/01/24 08:06:24;;;;;;;;;;;0.50;99.90;;;;;;5051716;28;20049;-59
2022/01/24 08:08:51;;;;;;;37.15;14.80;;;0.40;99.90;;;;;;5052041;28;19921;-59
2022/01/24 08:11:20;;;;;;;32.38;15.00;;;0.40;99.90;;;;;;5051700;28;20052;-60
2022/01/24 08:13:47;;;;;;;38.35;15.85;;;0.40;99.90;;;;;;5051347;28;20447;-60
2022/01/24 08:16:15;;;;;;;34.08;14.27;;;0.40;99.90;;;;;;5051159;28;20506;-60
2022/01/24 08:18:41;;;;;;;34.30;14.65;;;0.40;99.90;;;;;;5051802;28;20052;-60
2022/01/24 08:21:08;;;;;;;30.10;12.00;;;0.40;99.90;;;;;;5051723;28;20440;-60
2022/01/24 08:23:36;;;;;;;32.67;14.27;;;0.50;99.90;;;;;;5051601;28;20049;-60
2022/01/24 08:26:03;;;;;;;31.55;14.45;;;0.60;99.90;;;;;;5050815;28;20048;-60
2022/01/24 08:28:30;;;;;;;31.63;13.15;;;0.70;99.90;;;;;;5051689;28;20466;-60
2022/01/24 08:30:57;;;;;;;24.58;11.88;;;0.70;99.90;;;;;;5051546;28;20498;-60
2022/01/24 08:33:24;;;;;;;27.35;12.75;;;0.60;99.90;;;;;;5049861;28;20470;-60
2022/01/24 08:35:51;;;;;;;25.42;11.60;;;0.70;99.90;;;;;;5051028;28;20045;-60
2022/01/24 08:38:21;;;;;;;24.50;11.63;;;0.70;99.90;;;;;;5051127;28;20045;-60
2022/01/24 08:40:51;;;;;;;29.75;11.63;;;0.80;99.90;;;;;;5051303;28;20497;-59
2022/01/24 08:43:35;;;;;;;28.20;11.07;;;0.90;99.90;;;;;;5051181;28;20489;-60
2022/01/24 08:46:03;;;;;;;26.15;12.65;;;0.70;99.90;;;;;;5032947;28;20421;-59
2022/01/24 08:48:34;;;;;;;25.92;12.30;;;0.60;99.90;;;;;;5051235;28;20075;-60
2022/01/24 08:51:01;;;;;;;30.55;12.70;;;0.70;99.90;;;;;;5051338;28;20037;-60
2022/01/24 08:53:34;;;;;;;36.03;13.20;;;0.70;99.90;;;;;;5050998;28;20050;-60
2022/01/24 08:56:04;;;;;;;26.55;12.23;;;0.80;99.90;;;;;;5050748;28;20491;-60
2022/01/24 08:58:34;;;;;;;31.80;12.73;;;0.70;99.90;;;;;;5051259;28;20044;-60
2022/01/24 09:01:01;;;;;;;31.17;13.55;;;0.90;99.90;;;;;;5051198;28;20041;-60
2022/01/24 09:03:29;;;;;;;;;;;1.10;99.90;;;;;;5051574;28;20055;-60
2022/01/24 09:05:59;;;;;;;30.75;11.98;;;1.00;99.90;;;;;;5050407;28;19920;-59
2022/01/24 09:08:26;;;;;;;30.35;13.07;;;0.90;99.90;;;;;;5051161;28;20075;-60
2022/01/24 09:10:53;;;;;;;;;;;1.00;99.90;;;;;;5051692;28;20045;-60
2022/01/24 09:13:21;;;;;;;28.92;12.98;;;1.10;99.90;;;;;;5050995;28;20020;-60
2022/01/24 09:15:49;;;;;;;28.55;12.85;;;1.20;99.90;;;;;;5050526;28;20083;-60
2022/01/24 09:18:18;;;;;;;33.63;14.40;;;1.30;99.90;;;;;;5050667;28;20045;-60
2022/01/24 09:20:49;;;;;;;30.30;13.48;;;1.40;99.90;;;;;;5051588;28;20041;-60
2022/01/24 09:23:17;;;;;;;32.55;14.55;;;1.30;99.90;;;;;;5050970;28;20060;-60
2022/01/24 09:25:44;;;;;;;30.23;13.23;;;1.40;99.90;;;;;;5051080;28;20045;-60
2022/01/24 09:28:11;;;;;;;34.17;12.77;;;1.40;99.90;;;;;;5050940;28;20045;-60
2022/01/24 09:30:38;;;;;;;28.00;13.05;;;1.40;99.90;;;;;;5051160;28;20398;-60
2022/01/24 09:33:05;;;;;;;27.08;12.18;;;1.50;99.90;;;;;;5050669;28;20060;-60
2022/01/24 09:35:32;;;;;;;29.60;12.40;;;1.50;99.90;;;;;;5050507;28;20041;-60
2022/01/24 09:37:59;;;;;;;33.65;14.10;;;1.60;99.90;;;;;;5050706;28;20053;-60
2022/01/24 09:40:26;;;;;;;30.80;14.05;;;1.70;99.90;;;;;;5050792;28;20041;-60
2022/01/24 09:42:53;;;;;;;33.92;14.10;;;1.80;99.90;;;;;;5050573;28;20053;-60
2022/01/24 09:45:21;;;;;;;34.30;14.20;;;1.70;99.90;;;;;;5050236;28;20052;-60
2022/01/24 09:47:49;;;;;;;28.92;12.68;;;1.70;99.90;;;;;;5050647;28;20502;-60
2022/01/24 09:50:18;;;;;;;27.40;12.35;;;1.70;99.90;;;;;;5050871;28;20488;-60
2022/01/24 09:52:47;;;;;;;26.33;13.43;;;1.80;99.90;;;;;;5054274;28;20123;-60
2022/01/24 09:55:17;;;;;;;32.72;14.23;;;1.90;99.90;;;;;;5035991;28;20387;-60
2022/01/24 09:57:47;;;;;;;29.33;13.23;;;1.90;99.90;;;;;;5054114;28;20091;-60
2022/01/24 10:00:19;;;;;;;31.42;13.50;;;1.90;99.90;;;;;;5054010;28;20033;-60
2022/01/24 10:02:49;;;;;;;26.63;12.15;;;2.00;99.90;;;;;;5054017;28;20064;-60
2022/01/24 10:05:20;;;;;;;27.83;13.80;;;2.10;99.90;;;;;;5053714;28;20045;-60
2022/01/24 10:08:44;;;;;;;31.95;13.88;;;1.90;99.90;;;;;;5095807;22;20051;-60
2022/01/24 10:11:16;;;;;;;28.60;13.27;;;1.90;99.90;;;;;;5094015;28;20040;-60
2022/01/24 10:16:44;;;;;;;30.60;13.65;;;2.00;99.90;;;;;;5087437;28;20040;-60
2022/01/24 10:19:15;;;;;;;33.58;14.43;;;2.10;99.90;;;;;;5073909;28;20135;-60
2022/01/24 10:22:02;;;;;;;31.42;13.90;;;2.10;99.90;;;;;;5073855;28;20550;-60
2022/01/24 10:24:36;;;;;;;32.22;13.98;;;2.20;99.90;;;;;;5072545;28;20417;-60
2022/01/24 10:27:10;;;;;;;35.80;14.27;;;2.20;99.90;;;;;;5072876;28;20040;-60
2022/01/24 10:29:52;;;;;;;31.60;14.90;;;2.30;99.90;;;;;;5073675;28;20055;-60
2022/01/24 10:32:38;;;;;;;34.35;13.95;;;2.30;99.90;;;;;;5073540;28;20562;-60
2022/01/24 10:35:28;;;;;;;29.77;12.93;;;2.50;99.90;;;;;;5073408;28;20396;-60
2022/01/24 10:43:44;;;;;;;29.13;13.05;;;2.90;99.90;;;;;;5073354;28;20011;-60
2022/01/24 10:46:12;;;;;;;28.42;13.52;;;2.90;99.90;;;;;;5072869;28;20052;-60
2022/01/24 10:48:42;;;;;;;31.15;13.05;;;3.10;99.90;;;;;;5073290;28;20052;-60
2022/01/24 10:51:12;;;;;;;30.13;13.50;;;3.00;99.90;;;;;;5073338;28;20045;-60
2022/01/24 10:53:41;;;;;;;36.95;15.60;;;3.00;99.90;;;;;;5072918;28;20538;-60
2022/01/24 10:56:29;;;;;;;52.13;20.02;;;3.00;99.90;;;;;;5072500;28;20564;-60
2022/01/24 10:59:07;;;;;;;43.13;16.30;;;3.20;99.90;;;;;;5073199;28;20451;-60
2022/01/24 11:01:34;;;;;;;27.58;13.43;;;3.20;99.90;;;;;;5073268;28;20072;-60
2022/01/24 11:04:07;;;;;;;33.70;13.27;;;3.10;99.90;;;;;;5072934;28;20044;-60
2022/01/24 11:06:43;;;;;;;26.48;12.98;;;3.10;99.90;;;;;;5072410;28;20087;-60
2022/01/24 11:09:41;;;;;;;24.67;11.20;;;3.30;99.90;;;;;;5073331;28;20455;-60
2022/01/24 11:12:12;;;;;;;22.80;11.55;;;3.20;99.90;;;;;;5018394;28;20056;-60
2022/01/24 11:14:42;;;;;;;29.55;13.25;;;3.00;99.90;;;;;;5072656;28;20106;-60
2022/01/24 11:17:13;;;;;;;26.58;12.85;;;3.20;99.90;;;;;;5071832;28;20040;-60
2022/01/24 11:19:46;;;;;;;24.38;11.27;;;3.30;99.90;;;;;;5072636;28;20124;-60
2022/01/24 11:22:20;;;;;;;27.55;12.38;;;3.20;99.90;;;;;;5072581;28;20108;-60
2022/01/24 11:24:56;;;;;;;22.13;10.60;;;3.10;99.90;;;;;;5072569;28;20044;-59
2022/01/24 11:27:35;;;;;;;23.38;11.00;;;3.20;99.90;;;;;;5071939;28;20048;-61
2022/01/24 11:30:13;;;;;;;;;;;2.90;99.90;;;;;;5072799;28;20052;-60
2022/01/24 11:32:44;;;;;;;25.67;11.02;;;3.00;99.90;;;;;;5072437;28;19926;-61
2022/01/24 11:35:11;;;;;;;26.40;11.93;;;3.10;99.90;;;;;;5072146;28;20044;-60
2022/01/24 11:37:41;;;;;;;26.42;11.98;;;3.20;99.90;;;;;;5072360;28;20109;-60
2022/01/24 11:40:16;;;;;;;25.48;11.75;;;3.30;99.90;;;;;;5072000;28;20101;-60
2022/01/24 11:42:47;;;;;;;21.27;11.15;;;3.20;99.90;;;;;;5072265;28;20098;-61
2022/01/24 11:45:36;;;;;;;27.00;13.13;;;3.10;99.90;;;;;;5071813;28;20047;-60
2022/01/24 11:48:16;;;;;;;29.48;12.68;;;3.20;99.90;;;;;;5071960;28;20040;-61
2022/01/24 11:50:58;;;;;;;24.08;12.30;;;3.30;99.90;;;;;;5071950;28;20055;-60
2022/01/24 11:53:28;;;;;;;25.75;11.70;;;3.30;99.90;;;;;;5071873;28;20072;-60
2022/01/24 11:56:15;;;;;;;23.10;11.48;;;3.20;99.90;;;;;;5071613;28;20040;-60
2022/01/24 11:58:42;;;;;;;23.35;11.27;;;3.20;99.90;;;;;;5071785;28;20660;-60
2022/01/24 12:01:13;;;;;;;23.30;11.02;;;3.00;99.90;;;;;;5071839;28;20037;-61
2022/01/24 12:03:51;;;;;;;26.05;11.77;;;2.90;99.90;;;;;;5071725;28;20048;-60
2022/01/24 12:06:20;;;;;;;22.35;11.27;;;2.80;99.90;;;;;;5071117;28;20098;-59
2022/01/24 12:09:05;;;;;;;27.63;11.18;;;2.80;99.90;;;;;;5071691;28;20456;-60
2022/01/24 12:11:35;;;;;;;25.45;11.68;;;2.80;99.90;;;;;;5071638;28;20038;-60
2022/01/24 12:14:36;;;;;;;26.30;12.77;;;2.70;99.90;;;;;;5071443;28;20044;-60
2022/01/24 12:17:04;;;;;;;27.48;12.68;;;2.60;99.90;;;;;;5071225;28;20045;-60
2022/01/24 12:19:34;;;;;;;27.33;12.23;;;2.60;99.90;;;;;;5071277;28;20090;-60
2022/01/24 12:22:42;;;;;;;29.02;13.07;;;2.50;99.90;;;;;;5071652;28;20050;-60
2022/01/24 12:25:09;;;;;;;27.15;13.13;;;2.50;99.90;;;;;;5071362;28;20045;-60
2022/01/24 12:28:15;;;;;;;28.88;12.68;;;2.60;99.90;;;;;;5053685;28;20043;-60
2022/01/24 12:30:59;;;;;;;24.15;11.07;;;2.70;99.90;;;;;;5071238;28;20045;-60
2022/01/24 12:33:39;;;;;;;28.92;12.75;;;2.80;99.90;;;;;;5053710;28;20129;-61
2022/01/24 12:36:11;;;;;;;30.65;12.63;;;2.90;99.90;;;;;;5070865;28;20097;-60
2022/01/24 12:38:50;;;;;;;24.98;12.18;;;2.90;99.90;;;;;;5071506;28;20546;-60
2022/01/24 12:41:37;;;;;;;26.73;12.80;;;2.90;99.90;;;;;;5071728;28;20353;-60
2022/01/24 12:46:33;;;;;;;23.55;12.23;;;2.90;99.90;;;;;;5070772;28;20394;-60
2022/01/24 12:49:04;;;;;;;27.05;12.68;;;2.80;99.90;;;;;;5071333;28;20044;-60
2022/01/24 12:51:33;;;;;;;27.40;12.70;;;2.80;99.90;;;;;;5071642;28;20048;-60
2022/01/24 12:54:02;;;;;;;28.98;12.32;;;2.90;99.90;;;;;;5071274;28;20093;-60
2022/01/24 12:56:33;;;;;;;34.72;13.15;;;2.80;99.90;;;;;;5070502;28;20041;-60
2022/01/24 12:59:00;;;;;;;26.65;11.82;;;2.90;99.90;;;;;;5071101;28;20041;-60
2022/01/24 13:01:31;;;;;;;;;;;2.90;99.90;;;;;;5071543;28;20120;-60
2022/01/24 13:04:10;;;;;;;29.90;11.88;;;2.90;99.90;;;;;;5071277;28;20362;-60
2022/01/24 13:06:40;;;;;;;26.92;12.10;;;3.00;99.90;;;;;;5070552;28;20404;-60
2022/01/24 13:09:15;;;;;;;30.85;12.32;;;2.90;99.90;;;;;;5070990;28;20049;-60
2022/01/24 13:11:52;;;;;;;25.85;13.18;;;2.90;99.90;;;;;;5070967;28;20076;-60
2022/01/24 13:25:25;;;;;;;23.25;11.55;;;2.70;99.90;;;;;;5071212;28;20044;-60
2022/01/24 13:28:09;;;;;;;27.13;12.93;;;2.90;99.90;;;;;;5074946;28;20101;-60
2022/01/24 13:30:46;;;;;;;24.67;11.77;;;2.90;99.90;;;;;;5074854;28;20135;-60
2022/01/24 13:33:16;;;;;;;24.42;12.43;;;2.90;99.90;;;;;;5074520;28;20064;-60
2022/01/24 13:35:52;;;;;;;25.55;12.52;;;2.90;99.90;;;;;;5074304;28;20051;-60
2022/01/24 13:38:25;;;;;;;22.50;11.57;;;2.90;99.90;;;;;;5073239;28;20455;-60
2022/01/24 13:41:03;;;;;;;27.02;12.45;;;2.90;99.90;;;;;;5074646;28;20117;-60
2022/01/24 13:43:44;;;;;;;28.58;12.88;;;2.90;99.90;;;;;;5074315;28;20037;-60
2022/01/24 13:46:12;;;;;;;26.23;12.82;;;3.00;99.90;;;;;;5074027;28;20066;-60
2022/01/24 13:48:45;;;;;;;23.77;12.13;;;3.00;99.90;;;;;;5074452;28;20041;-59
2022/01/24 13:51:15;;;;;;;24.60;11.82;;;3.00;99.90;;;;;;5074263;28;20075;-60
2022/01/24 13:54:02;;;;;;;29.33;12.68;;;3.00;99.90;;;;;;5074564;28;20090;-59
2022/01/24 13:56:43;;;;;;;25.58;12.13;;;3.00;99.90;;;;;;5074135;28;20399;-59
2022/01/24 13:59:21;;;;;;;24.27;11.40;;;3.00;99.90;;;;;;5074557;28;20443;-60
2022/01/24 14:01:51;;;;;;;;;;;3.10;99.90;;;;;;5074534;28;20049;-60
2022/01/24 14:04:30;;;;;;;33.40;12.30;;;3.00;99.90;;;;;;5073938;28;19966;-60
2022/01/24 14:07:10;;;;;;;29.42;12.75;;;3.00;99.90;;;;;;5073612;28;20398;-59
2022/01/24 14:09:49;;;;;;;25.50;12.32;;;3.00;99.90;;;;;;5074043;28;20051;-60
2022/01/24 14:12:20;;;;;;;26.63;12.70;;;3.00;99.90;;;;;;5074054;28;20040;-59
2022/01/24 14:15:02;;;;;;;29.13;12.32;;;3.00;99.90;;;;;;5073634;28;20045;-60
2022/01/24 14:20:06;;;;;;;27.27;12.38;;;3.10;99.90;;;;;;5073798;28;20036;-60
2022/01/24 14:22:54;;;;;;;29.53;12.93;;;3.00;99.90;;;;;;5073648;28;20127;-60
2022/01/24 14:25:28;;;;;;;29.60;13.60;;;3.00;99.90;;;;;;5055278;28;20448;-60
2022/01/24 14:28:03;;;;;;;34.33;13.90;;;2.90;99.90;;;;;;5073423;28;20052;-60
2022/01/24 14:30:45;;;;;;;29.95;12.77;;;2.90;99.90;;;;;;5073596;28;20052;-60
2022/01/24 14:33:33;;;;;;;28.73;13.35;;;2.90;99.90;;;;;;5073714;28;20048;-60
2022/01/24 14:36:03;;;;;;;30.47;14.50;;;3.00;99.90;;;;;;5072841;28;20029;-60
2022/01/24 14:38:47;;;;;;;28.27;14.10;;;3.00;99.90;;;;;;5073625;28;20064;-60
2022/01/24 14:41:26;;;;;;;29.52;13.30;;;2.90;99.90;;;;;;5073057;28;20067;-59
2022/01/24 14:46:43;;;;;;;28.08;13.40;;;2.90;99.90;;;;;;5072955;28;20131;-60
2022/01/24 14:49:12;;;;;;;27.10;13.40;;;2.90;99.90;;;;;;5073268;28;20044;-60
2022/01/24 14:51:42;;;;;;;32.70;14.43;;;2.80;99.90;;;;;;5073048;28;20044;-59
2022/01/24 14:54:14;;;;;;;36.47;16.23;;;2.70;99.90;;;;;;5073312;28;20041;-60
2022/01/24 14:56:43;;;;;;;37.40;15.32;;;2.60;99.90;;;;;;5072734;28;20106;-60
2022/01/24 14:59:10;;;;;;;42.92;16.50;;;2.50;99.90;;;;;;5073037;28;20040;-60
2022/01/24 15:01:37;;;;;;;;;;;2.40;99.90;;;;;;5073530;28;20106;-59
2022/01/24 15:04:05;;;;;;;63.97;31.23;;;2.30;99.90;;;;;;5072887;28;19921;-59
2022/01/24 15:06:32;;;;;;;;;;;2.30;99.90;;;;;;5072562;28;20086;-59
2022/01/24 15:09:04;;;;;;;;;;;2.10;99.90;;;;;;5073546;28;19948;-59